sensor_id;sensor_type;location;lat;lon;timestamp;temperature;humidity
70321;DHT22;61127;55.826;37.046;2023-05-07T00:00:42;0.42;58.41
70321;DHT22;61127;55.826;37.046;2023-05-07T00:03:08;0.43;58.89
70321;DHT22;61127;55.826;37.046;2023-05-07T00:05:34;0.42;58.41
70321;DHT22;61127;55.826;37.046;2023-05-07T00:08:02;0.40;59.04
70321;DHT22;61127;55.826;37.046;2023-05-07T00:10:28;0.39;58.93
70321;DHT22;61127;55.826;37.046;2023-05-07T00:12:54;0.37;58.62
70321;DHT22;61127;55.826;37.046;2023-05-07T00:15:20;0.36;58.82
70321;DHT22;61127;55.826;37.046;2023-05-07T00:17:46;0.35;58.87
70321;DHT22;61127;55.826;37.046;2023-05-07T00:20:13;0.33;59.51
70321;DHT22;61127;55.826;37.046;2023-05-07T00:22:39;0.32;58.90
70321;DHT22;61127;55.826;37.046;2023-05-07T00:25:05;0.31;59.28
70321;DHT22;61127;55.826;37.046;2023-05-07T00:27:31;0.30;58.96
70321;DHT22;61127;55.826;37.046;2023-05-07T00:29:57;0.28;58.98
70321;DHT22;61127;55.826;37.046;2023-05-07T00:32:23;0.28;59.21
70321;DHT22;61127;55.826;37.046;2023-05-07T00:34:49;0.25;59.14
70321;DHT22;61127;55.826;37.046;2023-05-07T00:37:16;0.23;59.88
70321;DHT22;61127;55.826;37.046;2023-05-07T00:39:42;0.21;60.30
70321;DHT22;61127;55.826;37.046;2023-05-07T00:42:08;0.20;60.68
70321;DHT22;61127;55.826;37.046;2023-05-07T00:44:35;0.17;60.57
70321;DHT22;61127;55.826;37.046;2023-05-07T00:47:02;0.16;60.40
70321;DHT22;61127;55.826;37.046;2023-05-07T00:49:39;0.13;61.08
70321;DHT22;61127;55.826;37.046;2023-05-07T00:52:07;0.12;61.50
70321;DHT22;61127;55.826;37.046;2023-05-07T00:54:34;0.09;60.91
70321;DHT22;61127;55.826;37.046;2023-05-07T00:57:02;0.08;60.89
70321;DHT22;61127;55.826;37.046;2023-05-07T00:59:33;0.07;60.59
70321;DHT22;61127;55.826;37.046;2023-05-07T01:01:59;0.05;60.76
70321;DHT22;61127;55.826;37.046;2023-05-07T01:04:26;0.05;59.96
70321;DHT22;61127;55.826;37.046;2023-05-07T01:06:54;0.05;60.18
70321;DHT22;61127;55.826;37.046;2023-05-07T01:09:23;0.06;60.15
70321;DHT22;61127;55.826;37.046;2023-05-07T01:11:50;0.06;60.77
70321;DHT22;61127;55.826;37.046;2023-05-07T01:14:18;0.04;61.34
70321;DHT22;61127;55.826;37.046;2023-05-07T01:16:44;0.03;61.21
70321;DHT22;61127;55.826;37.046;2023-05-07T01:19:11;0.01;61.47
70321;DHT22;61127;55.826;37.046;2023-05-07T01:21:46;-0.03;62.95
70321;DHT22;61127;55.826;37.046;2023-05-07T01:24:15;-0.08;61.65
70321;DHT22;61127;55.826;37.046;2023-05-07T01:26:43;-0.11;62.47
70321;DHT22;61127;55.826;37.046;2023-05-07T01:29:12;-0.13;62.78
70321;DHT22;61127;55.826;37.046;2023-05-07T01:31:39;-0.15;62.18
70321;DHT22;61127;55.826;37.046;2023-05-07T01:34:07;-0.15;61.89
70321;DHT22;61127;55.826;37.046;2023-05-07T01:36:34;-0.16;62.28
70321;DHT22;61127;55.826;37.046;2023-05-07T01:39:01;-0.17;61.71
70321;DHT22;61127;55.826;37.046;2023-05-07T01:41:27;-0.17;62.31
70321;DHT22;61127;55.826;37.046;2023-05-07T01:43:54;-0.17;61.60
70321;DHT22;61127;55.826;37.046;2023-05-07T01:46:21;-0.17;62.26
70321;DHT22;61127;55.826;37.046;2023-05-07T01:48:47;-0.15;62.28
70321;DHT22;61127;55.826;37.046;2023-05-07T01:51:13;-0.16;62.37
70321;DHT22;61127;55.826;37.046;2023-05-07T01:53:39;-0.14;61.33
70321;DHT22;61127;55.826;37.046;2023-05-07T01:56:06;-0.14;61.63
70321;DHT22;61127;55.826;37.046;2023-05-07T01:58:34;-0.11;61.42
70321;DHT22;61127;55.826;37.046;2023-05-07T02:01:01;-0.08;62.89
70321;DHT22;61127;55.826;37.046;2023-05-07T02:03:27;-0.08;61.34
70321;DHT22;61127;55.826;37.046;2023-05-07T02:06:01;-0.03;61.44
70321;DHT22;61127;55.826;37.046;2023-05-07T02:08:38;-0.01;60.77
70321;DHT22;61127;55.826;37.046;2023-05-07T02:11:04;-0.00;62.25
70321;DHT22;61127;55.826;37.046;2023-05-07T02:13:32;-0.00;63.50
70321;DHT22;61127;55.826;37.046;2023-05-07T02:15:58;0.02;61.66
70321;DHT22;61127;55.826;37.046;2023-05-07T02:18:25;0.05;62.19
70321;DHT22;61127;55.826;37.046;2023-05-07T02:20:52;0.07;61.83
70321;DHT22;61127;55.826;37.046;2023-05-07T02:23:18;0.08;61.97
70321;DHT22;61127;55.826;37.046;2023-05-07T02:25:44;0.10;62.25
70321;DHT22;61127;55.826;37.046;2023-05-07T02:28:12;0.15;61.73
70321;DHT22;61127;55.826;37.046;2023-05-07T02:31:07;0.18;61.06
70321;DHT22;61127;55.826;37.046;2023-05-07T02:33:33;0.24;61.73
70321;DHT22;61127;55.826;37.046;2023-05-07T02:36:09;0.29;61.97
70321;DHT22;61127;55.826;37.046;2023-05-07T02:38:40;0.32;61.69
70321;DHT22;61127;55.826;37.046;2023-05-07T02:41:06;0.36;61.50
70321;DHT22;61127;55.826;37.046;2023-05-07T02:43:32;0.42;61.62
70321;DHT22;61127;55.826;37.046;2023-05-07T02:46:05;0.45;61.96
70321;DHT22;61127;55.826;37.046;2023-05-07T02:48:34;0.48;61.62
70321;DHT22;61127;55.826;37.046;2023-05-07T02:51:00;0.54;61.03
70321;DHT22;61127;55.826;37.046;2023-05-07T02:53:27;0.61;60.97
70321;DHT22;61127;55.826;37.046;2023-05-07T02:55:54;0.67;60.99
70321;DHT22;61127;55.826;37.046;2023-05-07T02:58:20;0.75;60.67
70321;DHT22;61127;55.826;37.046;2023-05-07T03:00:46;0.82;60.65
70321;DHT22;61127;55.826;37.046;2023-05-07T03:03:35;0.89;60.44
70321;DHT22;61127;55.826;37.046;2023-05-07T03:06:02;0.95;61.25
70321;DHT22;61127;55.826;37.046;2023-05-07T03:08:27;0.99;60.96
70321;DHT22;61127;55.826;37.046;2023-05-07T03:10:54;1.05;60.39
70321;DHT22;61127;55.826;37.046;2023-05-07T03:13:19;1.11;60.33
70321;DHT22;61127;55.826;37.046;2023-05-07T03:15:47;1.20;59.67
70321;DHT22;61127;55.826;37.046;2023-05-07T03:18:13;1.28;59.28
70321;DHT22;61127;55.826;37.046;2023-05-07T03:20:39;1.40;59.23
70321;DHT22;61127;55.826;37.046;2023-05-07T03:23:05;1.47;58.93
70321;DHT22;61127;55.826;37.046;2023-05-07T03:25:32;1.54;59.22
70321;DHT22;61127;55.826;37.046;2023-05-07T03:27:58;1.61;59.12
70321;DHT22;61127;55.826;37.046;2023-05-07T03:30:31;1.70;59.18
70321;DHT22;61127;55.826;37.046;2023-05-07T03:32:56;1.77;58.41
70321;DHT22;61127;55.826;37.046;2023-05-07T03:35:22;1.84;58.45
70321;DHT22;61127;55.826;37.046;2023-05-07T03:37:49;1.92;58.46
70321;DHT22;61127;55.826;37.046;2023-05-07T03:40:15;1.99;58.40
70321;DHT22;61127;55.826;37.046;2023-05-07T03:42:45;2.11;58.25
70321;DHT22;61127;55.826;37.046;2023-05-07T03:45:12;2.22;58.13
70321;DHT22;61127;55.826;37.046;2023-05-07T03:47:43;2.31;57.56
70321;DHT22;61127;55.826;37.046;2023-05-07T03:50:11;2.43;57.58
70321;DHT22;61127;55.826;37.046;2023-05-07T03:52:45;2.53;57.17
70321;DHT22;61127;55.826;37.046;2023-05-07T03:55:13;2.65;56.92
70321;DHT22;61127;55.826;37.046;2023-05-07T03:57:44;2.78;57.30
70321;DHT22;61127;55.826;37.046;2023-05-07T04:00:10;2.93;57.03
70321;DHT22;61127;55.826;37.046;2023-05-07T04:02:46;3.06;56.81
70321;DHT22;61127;55.826;37.046;2023-05-07T04:05:14;3.18;56.21
70321;DHT22;61127;55.826;37.046;2023-05-07T04:07:43;3.31;56.38
70321;DHT22;61127;55.826;37.046;2023-05-07T04:10:11;3.49;55.71
70321;DHT22;61127;55.826;37.046;2023-05-07T04:12:39;3.64;55.14
70321;DHT22;61127;55.826;37.046;2023-05-07T04:15:07;3.74;55.27
70321;DHT22;61127;55.826;37.046;2023-05-07T04:17:34;3.78;54.86
70321;DHT22;61127;55.826;37.046;2023-05-07T04:20:00;3.91;54.87
70321;DHT22;61127;55.826;37.046;2023-05-07T04:22:31;4.10;54.57
70321;DHT22;61127;55.826;37.046;2023-05-07T04:24:57;4.33;53.99
70321;DHT22;61127;55.826;37.046;2023-05-07T04:27:24;4.58;53.53
70321;DHT22;61127;55.826;37.046;2023-05-07T04:29:51;4.80;52.78
70321;DHT22;61127;55.826;37.046;2023-05-07T04:32:21;5.00;52.36
70321;DHT22;61127;55.826;37.046;2023-05-07T04:34:47;5.22;52.17
70321;DHT22;61127;55.826;37.046;2023-05-07T04:37:14;5.46;51.71
70321;DHT22;61127;55.826;37.046;2023-05-07T04:39:40;5.67;50.79
70321;DHT22;61127;55.826;37.046;2023-05-07T04:42:06;5.80;50.05
70321;DHT22;61127;55.826;37.046;2023-05-07T04:44:35;0.00;0.00
70321;DHT22;61127;55.826;37.046;2023-05-07T04:47:03;0.00;0.00
70321;DHT22;61127;55.826;37.046;2023-05-07T04:49:29;0.00;0.00
70321;DHT22;61127;55.826;37.046;2023-05-07T04:51:56;0.00;0.00
70321;DHT22;61127;55.826;37.046;2023-05-07T04:54:23;0.00;0.00
70321;DHT22;61127;55.826;37.046;2023-05-07T04:56:49;0.00;0.00
70321;DHT22;61127;55.826;37.046;2023-05-07T04:59:14;0.00;0.00
70321;DHT22;61127;55.826;37.046;2023-05-07T05:01:40;0.00;0.00
70321;DHT22;61127;55.826;37.046;2023-05-07T05:04:06;0.00;0.00
70321;DHT22;61127;55.826;37.046;2023-05-07T05:06:39;0.00;0.00
70321;DHT22;61127;55.826;37.046;2023-05-07T05:09:06;0.00;0.00
70321;DHT22;61127;55.826;37.046;2023-05-07T05:11:36;0.00;0.00
70321;DHT22;61127;55.826;37.046;2023-05-07T05:14:02;0.00;0.00
70321;DHT22;61127;55.826;37.046;2023-05-07T05:16:31;0.00;0.00
70321;DHT22;61127;55.826;37.046;2023-05-07T05:18:58;0.00;0.00
70321;DHT22;61127;55.826;37.046;2023-05-07T05:21:24;0.00;0.00
70321;DHT22;61127;55.826;37.046;2023-05-07T05:23:54;0.00;0.00
70321;DHT22;61127;55.826;37.046;2023-05-07T05:26:23;0.00;0.00
70321;DHT22;61127;55.826;37.046;2023-05-07T05:28:49;0.00;0.00
70321;DHT22;61127;55.826;37.046;2023-05-07T05:31:18;0.00;0.00
70321;DHT22;61127;55.826;37.046;2023-05-07T05:33:43;0.00;0.00
70321;DHT22;61127;55.826;37.046;2023-05-07T05:36:11;0.00;0.00
70321;DHT22;61127;55.826;37.046;2023-05-07T05:38:39;0.00;0.00
70321;DHT22;61127;55.826;37.046;2023-05-07T05:41:07;0.00;0.00
70321;DHT22;61127;55.826;37.046;2023-05-07T05:43:34;0.00;0.00
70321;DHT22;61127;55.826;37.046;2023-05-07T05:46:00;0.00;0.00
70321;DHT22;61127;55.826;37.046;2023-05-07T05:48:26;0.00;0.00
70321;DHT22;61127;55.826;37.046;2023-05-07T05:50:52;0.00;0.00
70321;DHT22;61127;55.826;37.046;2023-05-07T05:53:18;0.00;0.00
70321;DHT22;61127;55.826;37.046;2023-05-07T05:55:45;10.66;36.01
70321;DHT22;61127;55.826;37.046;2023-05-07T05:58:11;10.90;34.35
70321;DHT22;61127;55.826;37.046;2023-05-07T06:00:42;0.00;0.00
70321;DHT22;61127;55.826;37.046;2023-05-07T06:03:08;0.00;0.00
70321;DHT22;61127;55.826;37.046;2023-05-07T06:05:35;0.00;0.00
70321;DHT22;61127;55.826;37.046;2023-05-07T06:08:01;0.00;0.00
70321;DHT22;61127;55.826;37.046;2023-05-07T06:10:32;0.00;0.00
70321;DHT22;61127;55.826;37.046;2023-05-07T06:12:58;0.00;0.00
70321;DHT22;61127;55.826;37.046;2023-05-07T06:15:25;0.00;0.00
70321;DHT22;61127;55.826;37.046;2023-05-07T06:17:51;0.00;0.00
70321;DHT22;61127;55.826;37.046;2023-05-07T06:20:17;0.00;0.00
70321;DHT22;61127;55.826;37.046;2023-05-07T06:22:44;0.00;0.00
70321;DHT22;61127;55.826;37.046;2023-05-07T06:25:11;0.00;0.00
70321;DHT22;61127;55.826;37.046;2023-05-07T06:27:38;0.00;0.00
70321;DHT22;61127;55.826;37.046;2023-05-07T06:30:06;0.00;0.00
70321;DHT22;61127;55.826;37.046;2023-05-07T06:32:32;0.00;0.00
70321;DHT22;61127;55.826;37.046;2023-05-07T06:34:58;0.00;0.00
70321;DHT22;61127;55.826;37.046;2023-05-07T06:37:27;15.65;25.07
70321;DHT22;61127;55.826;37.046;2023-05-07T06:39:57;14.94;22.43
70321;DHT22;61127;55.826;37.046;2023-05-07T06:42:24;14.74;27.98
70321;DHT22;61127;55.826;37.046;2023-05-07T06:44:56;14.73;26.36
70321;DHT22;61127;55.826;37.046;2023-05-07T06:47:22;15.03;27.90
70321;DHT22;61127;55.826;37.046;2023-05-07T06:49:52;14.75;28.28
70321;DHT22;61127;55.826;37.046;2023-05-07T06:52:20;14.23;26.45
70321;DHT22;61127;55.826;37.046;2023-05-07T06:54:49;13.62;26.23
70321;DHT22;61127;55.826;37.046;2023-05-07T06:57:17;12.94;27.13
70321;DHT22;61127;55.826;37.046;2023-05-07T06:59:43;12.45;28.29
70321;DHT22;61127;55.826;37.046;2023-05-07T07:02:10;12.45;27.97
70321;DHT22;61127;55.826;37.046;2023-05-07T07:04:35;0.00;0.00
70321;DHT22;61127;55.826;37.046;2023-05-07T07:07:05;0.00;0.00
70321;DHT22;61127;55.826;37.046;2023-05-07T07:09:31;0.00;0.00
70321;DHT22;61127;55.826;37.046;2023-05-07T07:12:02;0.00;0.00
70321;DHT22;61127;55.826;37.046;2023-05-07T07:14:29;0.00;0.00
70321;DHT22;61127;55.826;37.046;2023-05-07T07:16:56;0.00;0.00
70321;DHT22;61127;55.826;37.046;2023-05-07T07:19:24;0.00;0.00
70321;DHT22;61127;55.826;37.046;2023-05-07T07:21:53;0.00;0.00
70321;DHT22;61127;55.826;37.046;2023-05-07T07:24:19;0.00;0.00
70321;DHT22;61127;55.826;37.046;2023-05-07T07:26:50;17.93;21.45
70321;DHT22;61127;55.826;37.046;2023-05-07T07:29:17;17.62;21.63
70321;DHT22;61127;55.826;37.046;2023-05-07T07:31:45;17.10;21.44
70321;DHT22;61127;55.826;37.046;2023-05-07T07:34:11;17.31;19.48
70321;DHT22;61127;55.826;37.046;2023-05-07T07:36:38;17.25;17.33
70321;DHT22;61127;55.826;37.046;2023-05-07T07:39:04;17.54;19.80
70321;DHT22;61127;55.826;37.046;2023-05-07T07:41:30;18.12;21.21
70321;DHT22;61127;55.826;37.046;2023-05-07T07:43:56;17.81;16.18
70321;DHT22;61127;55.826;37.046;2023-05-07T07:46:22;16.89;20.93
70321;DHT22;61127;55.826;37.046;2023-05-07T07:48:48;16.52;20.66
70321;DHT22;61127;55.826;37.046;2023-05-07T07:51:14;16.31;21.27
70321;DHT22;61127;55.826;37.046;2023-05-07T07:53:40;16.01;21.37
70321;DHT22;61127;55.826;37.046;2023-05-07T07:56:07;16.63;21.05
70321;DHT22;61127;55.826;37.046;2023-05-07T07:58:34;0.00;0.00
70321;DHT22;61127;55.826;37.046;2023-05-07T08:01:01;0.00;0.00
70321;DHT22;61127;55.826;37.046;2023-05-07T08:03:27;0.00;0.00
70321;DHT22;61127;55.826;37.046;2023-05-07T08:05:58;0.00;0.00
70321;DHT22;61127;55.826;37.046;2023-05-07T08:08:24;19.05;17.70
70321;DHT22;61127;55.826;37.046;2023-05-07T08:10:52;18.38;20.02
70321;DHT22;61127;55.826;37.046;2023-05-07T08:13:25;17.76;19.02
70321;DHT22;61127;55.826;37.046;2023-05-07T08:15:51;17.81;19.35
70321;DHT22;61127;55.826;37.046;2023-05-07T08:18:17;18.23;19.70
70321;DHT22;61127;55.826;37.046;2023-05-07T08:20:44;0.00;0.00
70321;DHT22;61127;55.826;37.046;2023-05-07T08:23:16;0.00;0.00
70321;DHT22;61127;55.826;37.046;2023-05-07T08:25:43;0.00;0.00
70321;DHT22;61127;55.826;37.046;2023-05-07T08:28:10;0.00;0.00
70321;DHT22;61127;55.826;37.046;2023-05-07T08:30:37;0.00;0.00
70321;DHT22;61127;55.826;37.046;2023-05-07T08:33:03;0.00;0.00
70321;DHT22;61127;55.826;37.046;2023-05-07T08:35:29;22.01;13.45
70321;DHT22;61127;55.826;37.046;2023-05-07T08:37:55;20.56;14.94
70321;DHT22;61127;55.826;37.046;2023-05-07T08:40:25;19.12;12.46
70321;DHT22;61127;55.826;37.046;2023-05-07T08:42:53;17.89;15.35
70321;DHT22;61127;55.826;37.046;2023-05-07T08:45:20;16.82;16.94
70321;DHT22;61127;55.826;37.046;2023-05-07T08:47:55;16.20;18.14
70321;DHT22;61127;55.826;37.046;2023-05-07T08:50:25;15.87;18.66
70321;DHT22;61127;55.826;37.046;2023-05-07T08:52:52;15.48;18.44
70321;DHT22;61127;55.826;37.046;2023-05-07T08:55:20;15.18;18.92
70321;DHT22;61127;55.826;37.046;2023-05-07T08:57:47;16.11;18.53
70321;DHT22;61127;55.826;37.046;2023-05-07T09:00:15;18.46;18.51
70321;DHT22;61127;55.826;37.046;2023-05-07T09:02:42;0.00;0.00
70321;DHT22;61127;55.826;37.046;2023-05-07T09:05:09;0.00;0.00
70321;DHT22;61127;55.826;37.046;2023-05-07T09:07:36;0.00;0.00
70321;DHT22;61127;55.826;37.046;2023-05-07T09:10:05;0.00;0.00
70321;DHT22;61127;55.826;37.046;2023-05-07T09:12:34;24.26;10.02
70321;DHT22;61127;55.826;37.046;2023-05-07T09:15:04;22.75;12.81
70321;DHT22;61127;55.826;37.046;2023-05-07T09:17:32;21.45;12.18
70321;DHT22;61127;55.826;37.046;2023-05-07T09:20:05;20.06;12.79
70321;DHT22;61127;55.826;37.046;2023-05-07T09:22:33;19.02;15.70
70321;DHT22;61127;55.826;37.046;2023-05-07T09:25:03;18.39;16.16
70321;DHT22;61127;55.826;37.046;2023-05-07T09:27:33;17.95;14.93
70321;DHT22;61127;55.826;37.046;2023-05-07T09:30:03;18.57;13.97
70321;DHT22;61127;55.826;37.046;2023-05-07T09:32:34;19.57;16.78
70321;DHT22;61127;55.826;37.046;2023-05-07T09:35:00;0.00;0.00
70321;DHT22;61127;55.826;37.046;2023-05-07T09:37:28;19.91;15.57
70321;DHT22;61127;55.826;37.046;2023-05-07T09:39:56;19.77;15.31
70321;DHT22;61127;55.826;37.046;2023-05-07T09:42:24;19.44;15.26
70321;DHT22;61127;55.826;37.046;2023-05-07T09:44:54;19.09;13.72
70321;DHT22;61127;55.826;37.046;2023-05-07T09:47:24;18.62;16.19
70321;DHT22;61127;55.826;37.046;2023-05-07T09:49:56;18.73;15.52
70321;DHT22;61127;55.826;37.046;2023-05-07T09:52:23;19.21;16.87
70321;DHT22;61127;55.826;37.046;2023-05-07T09:54:53;0.00;0.00
70321;DHT22;61127;55.826;37.046;2023-05-07T09:57:24;0.00;0.00
70321;DHT22;61127;55.826;37.046;2023-05-07T09:59:56;0.00;0.00
70321;DHT22;61127;55.826;37.046;2023-05-07T10:02:27;0.00;0.00
70321;DHT22;61127;55.826;37.046;2023-05-07T10:04:55;27.09;11.00
70321;DHT22;61127;55.826;37.046;2023-05-07T10:07:28;28.61;11.93
70321;DHT22;61127;55.826;37.046;2023-05-07T10:09:59;29.51;6.41
70321;DHT22;61127;55.826;37.046;2023-05-07T10:12:35;29.88;8.40
70321;DHT22;61127;55.826;37.046;2023-05-07T10:15:09;30.08;4.63
70321;DHT22;61127;55.826;37.046;2023-05-07T10:17:39;29.35;4.06
70321;DHT22;61127;55.826;37.046;2023-05-07T10:20:08;29.46;3.49
70321;DHT22;61127;55.826;37.046;2023-05-07T10:22:43;30.55;8.63
70321;DHT22;61127;55.826;37.046;2023-05-07T10:25:17;31.74;6.40
70321;DHT22;61127;55.826;37.046;2023-05-07T10:27:46;32.77;6.16
70321;DHT22;61127;55.826;37.046;2023-05-07T10:30:41;31.34;2.70
70321;DHT22;61127;55.826;37.046;2023-05-07T10:33:17;28.43;6.46
70321;DHT22;61127;55.826;37.046;2023-05-07T10:35:46;26.57;6.86
70321;DHT22;61127;55.826;37.046;2023-05-07T10:38:14;25.31;8.31
70321;DHT22;61127;55.826;37.046;2023-05-07T10:40:43;24.77;8.63
70321;DHT22;61127;55.826;37.046;2023-05-07T10:43:09;23.67;9.37
70321;DHT22;61127;55.826;37.046;2023-05-07T10:46:09;22.32;9.23
70321;DHT22;61127;55.826;37.046;2023-05-07T10:51:30;23.44;10.43
70321;DHT22;61127;55.826;37.046;2023-05-07T10:56:43;20.66;11.08
70321;DHT22;61127;55.826;37.046;2023-05-07T11:01:54;18.76;12.04
70321;DHT22;61127;55.826;37.046;2023-05-07T11:04:43;18.19;13.02
70321;DHT22;61127;55.826;37.046;2023-05-07T11:07:32;17.91;13.40
70321;DHT22;61127;55.826;37.046;2023-05-07T11:10:12;18.13;13.33
70321;DHT22;61127;55.826;37.046;2023-05-07T11:12:55;19.40;12.62
70321;DHT22;61127;55.826;37.046;2023-05-07T11:15:37;18.92;13.13
70321;DHT22;61127;55.826;37.046;2023-05-07T11:18:10;18.25;13.62
70321;DHT22;61127;55.826;37.046;2023-05-07T11:20:53;17.70;14.39
70321;DHT22;61127;55.826;37.046;2023-05-07T11:26:10;21.45;14.42
70321;DHT22;61127;55.826;37.046;2023-05-07T11:28:41;25.09;11.09
70321;DHT22;61127;55.826;37.046;2023-05-07T11:31:08;28.44;11.15
70321;DHT22;61127;55.826;37.046;2023-05-07T11:33:37;31.08;9.08
70321;DHT22;61127;55.826;37.046;2023-05-07T11:36:08;33.13;7.88
70321;DHT22;61127;55.826;37.046;2023-05-07T11:38:40;0.00;0.00
70321;DHT22;61127;55.826;37.046;2023-05-07T11:41:06;0.00;0.00
70321;DHT22;61127;55.826;37.046;2023-05-07T11:43:33;0.00;0.00
70321;DHT22;61127;55.826;37.046;2023-05-07T11:46:11;0.00;2.26
70321;DHT22;61127;55.826;37.046;2023-05-07T11:48:38;34.66;1.64
70321;DHT22;61127;55.826;37.046;2023-05-07T11:51:05;30.37;1.68
70321;DHT22;61127;55.826;37.046;2023-05-07T11:53:36;27.53;3.99
70321;DHT22;61127;55.826;37.046;2023-05-07T11:56:07;25.31;4.86
70321;DHT22;61127;55.826;37.046;2023-05-07T11:58:33;23.30;7.11
70321;DHT22;61127;55.826;37.046;2023-05-07T12:00:59;21.98;8.28
70321;DHT22;61127;55.826;37.046;2023-05-07T12:03:25;20.86;9.30
70321;DHT22;61127;55.826;37.046;2023-05-07T12:05:51;20.03;10.15
70321;DHT22;61127;55.826;37.046;2023-05-07T12:08:18;19.59;10.91
70321;DHT22;61127;55.826;37.046;2023-05-07T12:10:46;24.42;9.92
70321;DHT22;61127;55.826;37.046;2023-05-07T12:13:18;28.52;8.21
70321;DHT22;61127;55.826;37.046;2023-05-07T12:15:44;31.30;6.81
70321;DHT22;61127;55.826;37.046;2023-05-07T12:18:11;33.64;5.98
70321;DHT22;61127;55.826;37.046;2023-05-07T12:20:38;33.67;2.67
70321;DHT22;61127;55.826;37.046;2023-05-07T12:23:05;31.23;4.93
70321;DHT22;61127;55.826;37.046;2023-05-07T12:25:34;28.14;5.66
70321;DHT22;61127;55.826;37.046;2023-05-07T12:28:01;26.05;6.47
70321;DHT22;61127;55.826;37.046;2023-05-07T12:30:27;24.79;7.59
70321;DHT22;61127;55.826;37.046;2023-05-07T12:32:54;23.43;8.47
70321;DHT22;61127;55.826;37.046;2023-05-07T12:35:27;22.29;8.74
70321;DHT22;61127;55.826;37.046;2023-05-07T12:37:55;21.32;7.92
70321;DHT22;61127;55.826;37.046;2023-05-07T12:40:21;20.34;9.20
70321;DHT22;61127;55.826;37.046;2023-05-07T12:42:52;19.25;9.81
70321;DHT22;61127;55.826;37.046;2023-05-07T12:45:20;18.37;10.56
70321;DHT22;61127;55.826;37.046;2023-05-07T12:47:47;17.65;11.33
70321;DHT22;61127;55.826;37.046;2023-05-07T12:50:14;17.05;12.14
70321;DHT22;61127;55.826;37.046;2023-05-07T12:52:40;16.55;12.79
70321;DHT22;61127;55.826;37.046;2023-05-07T12:55:08;16.08;13.08
70321;DHT22;61127;55.826;37.046;2023-05-07T12:57:42;15.62;13.81
70321;DHT22;61127;55.826;37.046;2023-05-07T13:00:08;15.29;14.03
70321;DHT22;61127;55.826;37.046;2023-05-07T13:02:37;15.03;14.39
70321;DHT22;61127;55.826;37.046;2023-05-07T13:05:07;14.79;15.76
70321;DHT22;61127;55.826;37.046;2023-05-07T13:07:34;14.60;15.96
70321;DHT22;61127;55.826;37.046;2023-05-07T13:10:04;14.49;16.36
70321;DHT22;61127;55.826;37.046;2023-05-07T13:12:30;14.43;16.25
70321;DHT22;61127;55.826;37.046;2023-05-07T13:14:56;14.59;16.20
70321;DHT22;61127;55.826;37.046;2023-05-07T13:17:22;15.10;15.61
70321;DHT22;61127;55.826;37.046;2023-05-07T13:19:48;15.65;15.92
70321;DHT22;61127;55.826;37.046;2023-05-07T13:22:14;16.25;15.01
70321;DHT22;61127;55.826;37.046;2023-05-07T13:24:40;16.73;15.03
70321;DHT22;61127;55.826;37.046;2023-05-07T13:27:08;16.91;14.70
70321;DHT22;61127;55.826;37.046;2023-05-07T13:29:34;16.79;14.49
70321;DHT22;61127;55.826;37.046;2023-05-07T13:32:00;16.71;14.72
70321;DHT22;61127;55.826;37.046;2023-05-07T13:34:26;16.45;14.37
70321;DHT22;61127;55.826;37.046;2023-05-07T13:36:52;16.16;14.61
70321;DHT22;61127;55.826;37.046;2023-05-07T13:39:18;16.24;14.57
70321;DHT22;61127;55.826;37.046;2023-05-07T13:41:44;15.74;14.72
70321;DHT22;61127;55.826;37.046;2023-05-07T13:44:10;15.31;15.02
70321;DHT22;61127;55.826;37.046;2023-05-07T13:46:40;15.70;15.23
70321;DHT22;61127;55.826;37.046;2023-05-07T13:49:06;15.74;15.32
70321;DHT22;61127;55.826;37.046;2023-05-07T13:51:32;15.51;15.55
70321;DHT22;61127;55.826;37.046;2023-05-07T13:53:58;14.99;15.24
70321;DHT22;61127;55.826;37.046;2023-05-07T13:56:24;14.56;15.81
70321;DHT22;61127;55.826;37.046;2023-05-07T13:58:50;14.21;16.38
70321;DHT22;61127;55.826;37.046;2023-05-07T14:01:16;13.90;16.70
70321;DHT22;61127;55.826;37.046;2023-05-07T14:03:42;13.53;17.35
70321;DHT22;61127;55.826;37.046;2023-05-07T14:06:08;13.33;17.61
70321;DHT22;61127;55.826;37.046;2023-05-07T14:08:34;13.06;17.27
70321;DHT22;61127;55.826;37.046;2023-05-07T14:11:00;12.89;17.78
70321;DHT22;61127;55.826;37.046;2023-05-07T14:13:26;12.76;18.44
70321;DHT22;61127;55.826;37.046;2023-05-07T14:15:54;12.70;18.93
70321;DHT22;61127;55.826;37.046;2023-05-07T14:18:20;12.84;18.62
70321;DHT22;61127;55.826;37.046;2023-05-07T14:20:49;13.00;18.90
70321;DHT22;61127;55.826;37.046;2023-05-07T14:23:15;13.10;19.25
70321;DHT22;61127;55.826;37.046;2023-05-07T14:25:43;13.17;19.12
70321;DHT22;61127;55.826;37.046;2023-05-07T14:28:09;13.19;18.46
70321;DHT22;61127;55.826;37.046;2023-05-07T14:30:35;13.19;18.15
70321;DHT22;61127;55.826;37.046;2023-05-07T14:33:01;13.17;18.31
70321;DHT22;61127;55.826;37.046;2023-05-07T14:35:27;13.32;19.05
70321;DHT22;61127;55.826;37.046;2023-05-07T14:37:53;13.50;18.45
70321;DHT22;61127;55.826;37.046;2023-05-07T14:40:19;13.56;18.02
70321;DHT22;61127;55.826;37.046;2023-05-07T14:42:45;13.55;17.80
70321;DHT22;61127;55.826;37.046;2023-05-07T14:45:11;13.66;18.09
70321;DHT22;61127;55.826;37.046;2023-05-07T14:47:37;13.73;17.92
70321;DHT22;61127;55.826;37.046;2023-05-07T14:50:03;13.76;17.35
70321;DHT22;61127;55.826;37.046;2023-05-07T14:52:29;13.69;17.95
70321;DHT22;61127;55.826;37.046;2023-05-07T14:54:55;13.61;17.06
70321;DHT22;61127;55.826;37.046;2023-05-07T14:57:22;13.41;17.58
70321;DHT22;61127;55.826;37.046;2023-05-07T14:59:48;13.27;17.53
70321;DHT22;61127;55.826;37.046;2023-05-07T15:02:14;13.18;17.72
70321;DHT22;61127;55.826;37.046;2023-05-07T15:04:40;13.11;17.97
70321;DHT22;61127;55.826;37.046;2023-05-07T15:07:15;12.91;18.25
70321;DHT22;61127;55.826;37.046;2023-05-07T15:09:42;12.62;18.15
70321;DHT22;61127;55.826;37.046;2023-05-07T15:12:08;12.37;18.54
70321;DHT22;61127;55.826;37.046;2023-05-07T15:14:34;12.15;19.09
70321;DHT22;61127;55.826;37.046;2023-05-07T15:17:00;11.93;19.46
70321;DHT22;61127;55.826;37.046;2023-05-07T15:19:26;11.69;19.21
70321;DHT22;61127;55.826;37.046;2023-05-07T15:21:58;11.54;19.71
70321;DHT22;61127;55.826;37.046;2023-05-07T15:24:29;11.42;20.09
70321;DHT22;61127;55.826;37.046;2023-05-07T15:26:55;11.32;20.07
70321;DHT22;61127;55.826;37.046;2023-05-07T15:29:22;11.27;20.56
70321;DHT22;61127;55.826;37.046;2023-05-07T15:31:48;11.24;20.90
70321;DHT22;61127;55.826;37.046;2023-05-07T15:34:14;11.17;21.37
70321;DHT22;61127;55.826;37.046;2023-05-07T15:36:46;11.08;21.08
70321;DHT22;61127;55.826;37.046;2023-05-07T15:39:12;10.99;22.02
70321;DHT22;61127;55.826;37.046;2023-05-07T15:41:38;10.92;21.34
70321;DHT22;61127;55.826;37.046;2023-05-07T15:44:07;10.83;21.46